Orbital elements of ARIANE 44L DEB
| Launched | 28 October 1991 |
| Flight ended | – |
| Launch site | Europe's Spaceport, Kourou, French Guiana |
| Owner | France |
| NORAD ID | 27669 |
| Date fetched |
Epoch osculation |
Inc. [°] |
Ecc. | RA asc node [hr] |
Arg Peri. [°] |
Mean anom [°] |
Mean motion [rev/day] |
Abs. mag |
| Date fetched |
Epoch osculation |
Inc. [°] |
Ecc. | RA asc node [hr] |
Arg Peri. [°] |
Mean anom [°] |
Mean motion [rev/day] |
Abs. mag |
| 2026 May 08 17:57 | 2026 May 04 11:52:04 | 7.9055 | 0.49842 | 13.7033 | 258.4232 | 43.8044 | 5.74859 | – |
| 2026 May 07 17:58 | 2026 May 04 11:52:04 | 7.9055 | 0.49842 | 13.7033 | 258.4232 | 43.8044 | 5.74859 | – |
| 2026 May 06 17:57 | 2026 May 04 11:52:04 | 7.9055 | 0.49842 | 13.7033 | 258.4232 | 43.8044 | 5.74859 | – |
| 2026 May 05 17:57 | 2026 May 04 11:52:04 | 7.9055 | 0.49842 | 13.7033 | 258.4232 | 43.8044 | 5.74859 | – |
| 2026 May 04 17:57 | 2026 Apr 30 11:36:14 | 7.9036 | 0.50081 | 14.0718 | 247.5314 | 43.8044 | 5.74859 | – |
| 2026 May 03 17:57 | 2026 Apr 30 11:36:14 | 7.9036 | 0.50081 | 14.0718 | 247.5314 | 43.8044 | 5.74859 | – |
| 2026 May 02 17:57 | 2026 Apr 30 11:36:14 | 7.9036 | 0.50081 | 14.0718 | 247.5314 | 43.8044 | 5.74859 | – |
| 2026 May 01 17:56 | 2026 Apr 30 11:36:14 | 7.9036 | 0.50081 | 14.0718 | 247.5314 | 43.8044 | 5.74859 | – |
| 2026 Apr 30 17:56 | 2026 Apr 30 11:36:14 | 7.9036 | 0.50081 | 14.0718 | 247.5314 | 43.8044 | 5.74859 | – |
| 2026 Apr 29 17:57 | 2026 Apr 24 07:49:14 | 7.9029 | 0.50419 | 14.6321 | 230.9911 | 43.8044 | 5.74859 | – |
| 2026 Apr 28 17:56 | 2026 Apr 24 07:49:14 | 7.9029 | 0.50419 | 14.6321 | 230.9911 | 43.8044 | 5.74859 | – |
| 2026 Apr 27 17:58 | 2026 Apr 24 07:49:14 | 7.9029 | 0.50419 | 14.6321 | 230.9911 | 43.8044 | 5.74859 | – |
| 2026 Apr 26 17:58 | 2026 Apr 24 07:49:14 | 7.9029 | 0.50419 | 14.6321 | 230.9911 | 43.8044 | 5.74859 | – |
| 2026 Apr 25 17:58 | 2026 Apr 24 07:49:14 | 7.9029 | 0.50419 | 14.6321 | 230.9911 | 43.8044 | 5.74859 | – |
| 2026 Apr 24 17:59 | 2026 Apr 24 07:49:14 | 7.9029 | 0.50419 | 14.6321 | 230.9911 | 43.8044 | 5.74859 | – |
| 2026 Apr 23 17:57 | 2026 Apr 19 08:32:05 | 7.9027 | 0.50672 | 15.0781 | 217.8293 | 43.8044 | 5.74859 | – |
| 2026 Apr 22 17:57 | 2026 Apr 19 08:32:05 | 7.9027 | 0.50672 | 15.0781 | 217.8293 | 43.8044 | 5.74859 | – |
| 2026 Apr 21 17:57 | 2026 Apr 19 08:32:05 | 7.9027 | 0.50672 | 15.0781 | 217.8293 | 43.8044 | 5.74859 | – |
| 2026 Apr 20 17:57 | 2026 Apr 19 08:32:05 | 7.9027 | 0.50672 | 15.0781 | 217.8293 | 43.8044 | 5.74859 | – |
| 2026 Apr 19 17:58 | 2026 Apr 19 08:32:05 | 7.9027 | 0.50672 | 15.0781 | 217.8293 | 43.8044 | 5.74859 | – |
| 2026 Apr 18 17:56 | 2026 Apr 12 21:56:17 | 7.9045 | 0.50941 | 15.6493 | 200.9723 | 43.8044 | 5.74859 | – |
| 2026 Apr 16 17:57 | 2026 Apr 12 21:56:17 | 7.9045 | 0.50941 | 15.6493 | 200.9723 | 43.8044 | 5.74859 | – |
| 2026 Apr 14 17:57 | 2026 Apr 12 21:56:17 | 7.9045 | 0.50941 | 15.6493 | 200.9723 | 43.8044 | 5.74859 | – |
| 2026 Apr 13 17:57 | 2026 Apr 12 21:56:17 | 7.9045 | 0.50941 | 15.6493 | 200.9723 | 43.8044 | 5.74859 | – |
| 2026 Apr 12 17:57 | 2026 Apr 08 05:28:54 | 7.9044 | 0.51161 | 16.0599 | 188.8570 | 43.8044 | 5.74859 | – |
| 2026 Apr 11 17:57 | 2026 Apr 08 05:28:54 | 7.9044 | 0.51161 | 16.0599 | 188.8570 | 43.8044 | 5.74859 | – |